sensor_id;sensor_type;location;lat;lon;timestamp;P1;durP1;ratioP1;P2;durP2;ratioP2
21424;SDS011;10873;51.132;16.848;2022-10-03T00:01:24;3.50;;;1.80;;
21424;SDS011;10873;51.132;16.848;2022-10-03T00:04:10;4.35;;;1.58;;
21424;SDS011;10873;51.132;16.848;2022-10-03T00:06:51;4.97;;;1.73;;
21424;SDS011;10873;51.132;16.848;2022-10-03T00:09:32;3.25;;;1.50;;
21424;SDS011;10873;51.132;16.848;2022-10-03T00:12:09;4.60;;;1.92;;
21424;SDS011;10873;51.132;16.848;2022-10-03T00:14:45;4.10;;;1.50;;
21424;SDS011;10873;51.132;16.848;2022-10-03T00:17:22;5.20;;;1.88;;
21424;SDS011;10873;51.132;16.848;2022-10-03T00:19:57;3.80;;;1.60;;
21424;SDS011;10873;51.132;16.848;2022-10-03T00:22:33;3.60;;;1.80;;
21424;SDS011;10873;51.132;16.848;2022-10-03T00:25:14;3.13;;;1.50;;
21424;SDS011;10873;51.132;16.848;2022-10-03T00:27:51;3.88;;;1.48;;
21424;SDS011;10873;51.132;16.848;2022-10-03T00:30:41;4.30;;;1.48;;
21424;SDS011;10873;51.132;16.848;2022-10-03T00:33:25;3.95;;;1.70;;
21424;SDS011;10873;51.132;16.848;2022-10-03T00:36:03;3.67;;;1.70;;
21424;SDS011;10873;51.132;16.848;2022-10-03T00:38:43;3.97;;;2.10;;
21424;SDS011;10873;51.132;16.848;2022-10-03T00:41:30;5.50;;;1.90;;
21424;SDS011;10873;51.132;16.848;2022-10-03T00:44:18;3.85;;;1.58;;
21424;SDS011;10873;51.132;16.848;2022-10-03T00:47:10;4.13;;;1.58;;
21424;SDS011;10873;51.132;16.848;2022-10-03T00:50:10;4.10;;;1.65;;
21424;SDS011;10873;51.132;16.848;2022-10-03T00:53:00;3.58;;;1.40;;
21424;SDS011;10873;51.132;16.848;2022-10-03T00:55:42;4.68;;;1.65;;
21424;SDS011;10873;51.132;16.848;2022-10-03T00:58:36;4.47;;;1.33;;
21424;SDS011;10873;51.132;16.848;2022-10-03T01:01:20;4.65;;;1.30;;
21424;SDS011;10873;51.132;16.848;2022-10-03T01:03:51;4.32;;;1.60;;
21424;SDS011;10873;51.132;16.848;2022-10-03T01:06:32;4.95;;;1.67;;
21424;SDS011;10873;51.132;16.848;2022-10-03T01:09:19;4.75;;;1.63;;
21424;SDS011;10873;51.132;16.848;2022-10-03T01:11:56;4.70;;;1.73;;
21424;SDS011;10873;51.132;16.848;2022-10-03T01:14:44;3.65;;;1.40;;
21424;SDS011;10873;51.132;16.848;2022-10-03T01:17:21;3.75;;;1.25;;
21424;SDS011;10873;51.132;16.848;2022-10-03T01:20:05;5.45;;;1.35;;
21424;SDS011;10873;51.132;16.848;2022-10-03T01:22:53;3.90;;;1.70;;
21424;SDS011;10873;51.132;16.848;2022-10-03T01:25:37;3.95;;;1.73;;
21424;SDS011;10873;51.132;16.848;2022-10-03T01:28:23;6.13;;;2.65;;
21424;SDS011;10873;51.132;16.848;2022-10-03T01:31:22;5.40;;;2.50;;
21424;SDS011;10873;51.132;16.848;2022-10-03T01:33:53;3.45;;;1.95;;
21424;SDS011;10873;51.132;16.848;2022-10-03T01:36:28;4.90;;;2.30;;
21424;SDS011;10873;51.132;16.848;2022-10-03T01:39:01;3.92;;;2.00;;
21424;SDS011;10873;51.132;16.848;2022-10-03T01:41:33;4.55;;;1.92;;
21424;SDS011;10873;51.132;16.848;2022-10-03T01:44:15;6.47;;;2.03;;
21424;SDS011;10873;51.132;16.848;2022-10-03T01:46:49;4.65;;;1.73;;
21424;SDS011;10873;51.132;16.848;2022-10-03T01:49:23;6.38;;;1.85;;
21424;SDS011;10873;51.132;16.848;2022-10-03T01:51:57;4.35;;;1.80;;
21424;SDS011;10873;51.132;16.848;2022-10-03T01:54:32;5.38;;;2.00;;
21424;SDS011;10873;51.132;16.848;2022-10-03T01:57:09;5.63;;;2.10;;
21424;SDS011;10873;51.132;16.848;2022-10-03T01:59:44;3.95;;;1.63;;
21424;SDS011;10873;51.132;16.848;2022-10-03T02:02:16;4.95;;;2.08;;
21424;SDS011;10873;51.132;16.848;2022-10-03T02:04:50;2.72;;;1.50;;
21424;SDS011;10873;51.132;16.848;2022-10-03T02:07:22;7.50;;;2.13;;
21424;SDS011;10873;51.132;16.848;2022-10-03T02:09:56;4.75;;;2.03;;
21424;SDS011;10873;51.132;16.848;2022-10-03T02:12:30;3.38;;;1.67;;
21424;SDS011;10873;51.132;16.848;2022-10-03T02:15:06;5.22;;;2.22;;
21424;SDS011;10873;51.132;16.848;2022-10-03T02:17:45;5.20;;;1.80;;
21424;SDS011;10873;51.132;16.848;2022-10-03T02:20:22;3.92;;;1.58;;
21424;SDS011;10873;51.132;16.848;2022-10-03T02:22:53;5.20;;;1.67;;
21424;SDS011;10873;51.132;16.848;2022-10-03T02:25:25;5.60;;;1.55;;
21424;SDS011;10873;51.132;16.848;2022-10-03T02:28:20;3.40;;;1.40;;
21424;SDS011;10873;51.132;16.848;2022-10-03T02:34:12;5.57;;;1.77;;
21424;SDS011;10873;51.132;16.848;2022-10-03T02:46:03;6.00;;;1.98;;
21424;SDS011;10873;51.132;16.848;2022-10-03T02:49:03;3.08;;;1.30;;
21424;SDS011;10873;51.132;16.848;2022-10-03T02:54:56;5.63;;;1.65;;
21424;SDS011;10873;51.132;16.848;2022-10-03T02:58:04;3.80;;;1.42;;
21424;SDS011;10873;51.132;16.848;2022-10-03T03:04:16;5.13;;;1.60;;
21424;SDS011;10873;51.132;16.848;2022-10-03T03:07:19;4.85;;;1.77;;
21424;SDS011;10873;51.132;16.848;2022-10-03T03:10:10;4.60;;;1.70;;
21424;SDS011;10873;51.132;16.848;2022-10-03T03:13:14;5.57;;;1.90;;
21424;SDS011;10873;51.132;16.848;2022-10-03T03:19:11;5.15;;;1.50;;
21424;SDS011;10873;51.132;16.848;2022-10-03T03:21:50;5.75;;;1.58;;
21424;SDS011;10873;51.132;16.848;2022-10-03T03:24:30;4.63;;;1.52;;
21424;SDS011;10873;51.132;16.848;2022-10-03T03:27:12;5.32;;;1.83;;
21424;SDS011;10873;51.132;16.848;2022-10-03T03:29:50;7.25;;;1.98;;
21424;SDS011;10873;51.132;16.848;2022-10-03T03:32:30;5.53;;;1.90;;
21424;SDS011;10873;51.132;16.848;2022-10-03T03:35:12;5.60;;;1.70;;
21424;SDS011;10873;51.132;16.848;2022-10-03T03:37:47;4.45;;;1.83;;
21424;SDS011;10873;51.132;16.848;2022-10-03T03:40:27;3.92;;;1.65;;
21424;SDS011;10873;51.132;16.848;2022-10-03T03:43:07;4.38;;;1.65;;
21424;SDS011;10873;51.132;16.848;2022-10-03T03:46:04;4.63;;;1.50;;
21424;SDS011;10873;51.132;16.848;2022-10-03T03:48:42;4.95;;;2.40;;
21424;SDS011;10873;51.132;16.848;2022-10-03T03:51:42;7.25;;;1.95;;
21424;SDS011;10873;51.132;16.848;2022-10-03T03:54:29;5.53;;;1.63;;
21424;SDS011;10873;51.132;16.848;2022-10-03T04:00:29;5.50;;;1.88;;
21424;SDS011;10873;51.132;16.848;2022-10-03T04:03:15;4.00;;;1.60;;
21424;SDS011;10873;51.132;16.848;2022-10-03T04:05:53;5.93;;;1.52;;
21424;SDS011;10873;51.132;16.848;2022-10-03T04:08:59;6.10;;;1.70;;
21424;SDS011;10873;51.132;16.848;2022-10-03T04:11:42;6.03;;;1.88;;
21424;SDS011;10873;51.132;16.848;2022-10-03T04:20:37;4.05;;;1.42;;
21424;SDS011;10873;51.132;16.848;2022-10-03T04:23:33;5.13;;;1.40;;
21424;SDS011;10873;51.132;16.848;2022-10-03T04:26:26;10.57;;;2.03;;
21424;SDS011;10873;51.132;16.848;2022-10-03T04:29:18;8.68;;;1.80;;
21424;SDS011;10873;51.132;16.848;2022-10-03T04:32:08;22.95;;;3.10;;
21424;SDS011;10873;51.132;16.848;2022-10-03T04:35:18;9.05;;;2.20;;
21424;SDS011;10873;51.132;16.848;2022-10-03T04:38:04;14.48;;;2.40;;
21424;SDS011;10873;51.132;16.848;2022-10-03T04:40:40;18.40;;;2.78;;
21424;SDS011;10873;51.132;16.848;2022-10-03T04:43:17;16.08;;;2.28;;
21424;SDS011;10873;51.132;16.848;2022-10-03T04:45:55;9.30;;;2.05;;
21424;SDS011;10873;51.132;16.848;2022-10-03T04:48:38;8.80;;;2.00;;
21424;SDS011;10873;51.132;16.848;2022-10-03T04:51:16;11.05;;;2.00;;
21424;SDS011;10873;51.132;16.848;2022-10-03T04:53:49;7.80;;;2.10;;
21424;SDS011;10873;51.132;16.848;2022-10-03T04:56:26;9.90;;;1.88;;
21424;SDS011;10873;51.132;16.848;2022-10-03T04:59:09;5.70;;;1.55;;
21424;SDS011;10873;51.132;16.848;2022-10-03T05:01:51;10.95;;;2.38;;
21424;SDS011;10873;51.132;16.848;2022-10-03T05:04:23;14.20;;;2.22;;
21424;SDS011;10873;51.132;16.848;2022-10-03T05:06:59;11.80;;;2.00;;
21424;SDS011;10873;51.132;16.848;2022-10-03T05:09:32;48.95;;;5.50;;
21424;SDS011;10873;51.132;16.848;2022-10-03T05:12:06;27.15;;;3.38;;
21424;SDS011;10873;51.132;16.848;2022-10-03T05:17:40;20.60;;;2.50;;
21424;SDS011;10873;51.132;16.848;2022-10-03T05:20:17;12.57;;;2.45;;
21424;SDS011;10873;51.132;16.848;2022-10-03T05:22:53;10.80;;;2.30;;
21424;SDS011;10873;51.132;16.848;2022-10-03T05:25:36;8.05;;;2.13;;
21424;SDS011;10873;51.132;16.848;2022-10-03T05:28:11;15.68;;;2.22;;
21424;SDS011;10873;51.132;16.848;2022-10-03T05:30:49;6.32;;;1.80;;
21424;SDS011;10873;51.132;16.848;2022-10-03T05:33:25;8.77;;;2.00;;
21424;SDS011;10873;51.132;16.848;2022-10-03T05:41:52;14.38;;;2.72;;
21424;SDS011;10873;51.132;16.848;2022-10-03T05:44:29;10.85;;;2.50;;
21424;SDS011;10873;51.132;16.848;2022-10-03T05:47:07;6.43;;;2.22;;
21424;SDS011;10873;51.132;16.848;2022-10-03T05:50:09;6.97;;;1.95;;
21424;SDS011;10873;51.132;16.848;2022-10-03T05:53:01;4.70;;;1.85;;
21424;SDS011;10873;51.132;16.848;2022-10-03T05:55:44;7.75;;;2.00;;
21424;SDS011;10873;51.132;16.848;2022-10-03T06:04:17;6.00;;;1.75;;
21424;SDS011;10873;51.132;16.848;2022-10-03T06:07:13;7.15;;;2.00;;
21424;SDS011;10873;51.132;16.848;2022-10-03T06:12:44;4.53;;;1.63;;
21424;SDS011;10873;51.132;16.848;2022-10-03T06:15:37;4.18;;;1.40;;
21424;SDS011;10873;51.132;16.848;2022-10-03T06:18:22;6.07;;;1.90;;
21424;SDS011;10873;51.132;16.848;2022-10-03T06:21:31;5.25;;;1.52;;
21424;SDS011;10873;51.132;16.848;2022-10-03T06:24:19;6.07;;;1.63;;
21424;SDS011;10873;51.132;16.848;2022-10-03T06:30:18;4.53;;;1.98;;
21424;SDS011;10873;51.132;16.848;2022-10-03T06:36:20;6.95;;;2.10;;
21424;SDS011;10873;51.132;16.848;2022-10-03T06:39:27;5.25;;;2.10;;
21424;SDS011;10873;51.132;16.848;2022-10-03T06:42:20;6.07;;;2.35;;
21424;SDS011;10873;51.132;16.848;2022-10-03T06:45:09;6.85;;;2.05;;
21424;SDS011;10873;51.132;16.848;2022-10-03T06:48:06;7.90;;;2.63;;
21424;SDS011;10873;51.132;16.848;2022-10-03T06:53:38;6.53;;;2.30;;
21424;SDS011;10873;51.132;16.848;2022-10-03T06:59:50;7.93;;;3.60;;
21424;SDS011;10873;51.132;16.848;2022-10-03T07:18:27;6.35;;;2.63;;
21424;SDS011;10873;51.132;16.848;2022-10-03T07:21:31;4.57;;;2.53;;
21424;SDS011;10873;51.132;16.848;2022-10-03T07:24:40;4.60;;;2.10;;
21424;SDS011;10873;51.132;16.848;2022-10-03T07:27:44;3.05;;;1.70;;
21424;SDS011;10873;51.132;16.848;2022-10-03T07:30:29;4.82;;;2.10;;
21424;SDS011;10873;51.132;16.848;2022-10-03T07:36:31;4.85;;;1.90;;
21424;SDS011;10873;51.132;16.848;2022-10-03T07:47:00;3.75;;;2.00;;
21424;SDS011;10873;51.132;16.848;2022-10-03T07:56:54;3.13;;;1.25;;
21424;SDS011;10873;51.132;16.848;2022-10-03T08:06:09;2.63;;;1.20;;
21424;SDS011;10873;51.132;16.848;2022-10-03T08:08:58;4.05;;;1.30;;
21424;SDS011;10873;51.132;16.848;2022-10-03T08:11:52;6.40;;;1.33;;
21424;SDS011;10873;51.132;16.848;2022-10-03T08:14:39;2.58;;;1.00;;
21424;SDS011;10873;51.132;16.848;2022-10-03T08:17:31;2.65;;;1.00;;
21424;SDS011;10873;51.132;16.848;2022-10-03T08:20:19;2.65;;;1.15;;
21424;SDS011;10873;51.132;16.848;2022-10-03T08:23:06;3.47;;;0.98;;
21424;SDS011;10873;51.132;16.848;2022-10-03T08:25:57;2.20;;;1.10;;
21424;SDS011;10873;51.132;16.848;2022-10-03T08:28:40;4.60;;;1.13;;
21424;SDS011;10873;51.132;16.848;2022-10-03T08:34:35;3.20;;;0.90;;
21424;SDS011;10873;51.132;16.848;2022-10-03T08:40:38;3.88;;;1.13;;
21424;SDS011;10873;51.132;16.848;2022-10-03T08:43:51;2.60;;;0.98;;
21424;SDS011;10873;51.132;16.848;2022-10-03T08:46:43;2.15;;;1.00;;
21424;SDS011;10873;51.132;16.848;2022-10-03T08:49:43;2.40;;;1.20;;
21424;SDS011;10873;51.132;16.848;2022-10-03T08:52:50;1.48;;;0.80;;
21424;SDS011;10873;51.132;16.848;2022-10-03T08:55:44;2.92;;;1.00;;
21424;SDS011;10873;51.132;16.848;2022-10-03T08:58:27;2.58;;;0.82;;
21424;SDS011;10873;51.132;16.848;2022-10-03T09:04:50;3.42;;;1.13;;
21424;SDS011;10873;51.132;16.848;2022-10-03T09:07:49;1.98;;;0.93;;
21424;SDS011;10873;51.132;16.848;2022-10-03T09:10:55;1.38;;;0.70;;
21424;SDS011;10873;51.132;16.848;2022-10-03T09:16:49;3.67;;;0.90;;
21424;SDS011;10873;51.132;16.848;2022-10-03T09:19:44;1.90;;;0.90;;
21424;SDS011;10873;51.132;16.848;2022-10-03T09:26:04;3.53;;;1.10;;
21424;SDS011;10873;51.132;16.848;2022-10-03T09:29:11;1.90;;;1.00;;
21424;SDS011;10873;51.132;16.848;2022-10-03T09:38:19;2.92;;;1.02;;
21424;SDS011;10873;51.132;16.848;2022-10-03T09:41:14;2.05;;;0.90;;
21424;SDS011;10873;51.132;16.848;2022-10-03T09:44:23;1.95;;;0.85;;
21424;SDS011;10873;51.132;16.848;2022-10-03T09:47:28;2.75;;;1.15;;
21424;SDS011;10873;51.132;16.848;2022-10-03T09:50:39;2.20;;;1.15;;
21424;SDS011;10873;51.132;16.848;2022-10-03T09:53:26;1.85;;;1.02;;
21424;SDS011;10873;51.132;16.848;2022-10-03T09:59:37;1.65;;;0.90;;
21424;SDS011;10873;51.132;16.848;2022-10-03T10:10:27;2.08;;;0.90;;
21424;SDS011;10873;51.132;16.848;2022-10-03T10:13:21;3.88;;;0.98;;
21424;SDS011;10873;51.132;16.848;2022-10-03T10:16:18;1.77;;;0.82;;
21424;SDS011;10873;51.132;16.848;2022-10-03T10:25:12;20.90;;;1.60;;
21424;SDS011;10873;51.132;16.848;2022-10-03T10:31:20;13.63;;;1.30;;
21424;SDS011;10873;51.132;16.848;2022-10-03T10:37:38;4.72;;;1.20;;
21424;SDS011;10873;51.132;16.848;2022-10-03T10:40:37;2.42;;;1.00;;
21424;SDS011;10873;51.132;16.848;2022-10-03T10:43:32;7.85;;;1.02;;
21424;SDS011;10873;51.132;16.848;2022-10-03T10:46:31;2.38;;;0.90;;
21424;SDS011;10873;51.132;16.848;2022-10-03T10:49:26;3.47;;;1.00;;
21424;SDS011;10873;51.132;16.848;2022-10-03T10:52:19;5.93;;;1.15;;
21424;SDS011;10873;51.132;16.848;2022-10-03T10:55:24;5.40;;;1.20;;
21424;SDS011;10873;51.132;16.848;2022-10-03T11:07:57;8.00;;;2.17;;
21424;SDS011;10873;51.132;16.848;2022-10-03T11:14:09;7.22;;;1.90;;
21424;SDS011;10873;51.132;16.848;2022-10-03T11:26:36;5.38;;;2.05;;
21424;SDS011;10873;51.132;16.848;2022-10-03T11:32:25;7.28;;;2.17;;
21424;SDS011;10873;51.132;16.848;2022-10-03T11:35:30;7.03;;;1.67;;
21424;SDS011;10873;51.132;16.848;2022-10-03T11:38:17;5.82;;;1.80;;
21424;SDS011;10873;51.132;16.848;2022-10-03T11:40:50;4.50;;;1.65;;
21424;SDS011;10873;51.132;16.848;2022-10-03T11:43:44;4.40;;;1.88;;
21424;SDS011;10873;51.132;16.848;2022-10-03T11:46:35;7.00;;;1.77;;
21424;SDS011;10873;51.132;16.848;2022-10-03T11:49:37;5.50;;;1.88;;
21424;SDS011;10873;51.132;16.848;2022-10-03T11:52:26;4.63;;;1.38;;
21424;SDS011;10873;51.132;16.848;2022-10-03T11:55:01;5.75;;;1.50;;
21424;SDS011;10873;51.132;16.848;2022-10-03T11:57:34;5.97;;;1.60;;
21424;SDS011;10873;51.132;16.848;2022-10-03T12:00:03;4.97;;;1.63;;
21424;SDS011;10873;51.132;16.848;2022-10-03T12:02:48;5.63;;;1.50;;
21424;SDS011;10873;51.132;16.848;2022-10-03T12:05:27;5.43;;;1.45;;
21424;SDS011;10873;51.132;16.848;2022-10-03T12:08:10;4.25;;;1.58;;
21424;SDS011;10873;51.132;16.848;2022-10-03T12:11:06;3.15;;;1.27;;
21424;SDS011;10873;51.132;16.848;2022-10-03T12:13:41;10.43;;;1.60;;
21424;SDS011;10873;51.132;16.848;2022-10-03T12:16:15;5.10;;;1.67;;
21424;SDS011;10873;51.132;16.848;2022-10-03T12:18:53;5.40;;;1.45;;
21424;SDS011;10873;51.132;16.848;2022-10-03T12:21:31;5.55;;;1.40;;
21424;SDS011;10873;51.132;16.848;2022-10-03T12:24:15;6.70;;;1.67;;
21424;SDS011;10873;51.132;16.848;2022-10-03T12:26:51;5.05;;;1.40;;
21424;SDS011;10873;51.132;16.848;2022-10-03T12:29:20;10.95;;;1.65;;
21424;SDS011;10873;51.132;16.848;2022-10-03T12:31:54;6.15;;;1.30;;
21424;SDS011;10873;51.132;16.848;2022-10-03T12:34:36;4.60;;;1.10;;
21424;SDS011;10873;51.132;16.848;2022-10-03T12:37:10;4.35;;;1.20;;
21424;SDS011;10873;51.132;16.848;2022-10-03T12:40:04;6.38;;;1.25;;
21424;SDS011;10873;51.132;16.848;2022-10-03T12:42:42;2.28;;;0.93;;
21424;SDS011;10873;51.132;16.848;2022-10-03T12:45:17;2.60;;;1.00;;
21424;SDS011;10873;51.132;16.848;2022-10-03T12:47:56;2.30;;;1.00;;
21424;SDS011;10873;51.132;16.848;2022-10-03T12:50:37;4.28;;;1.20;;
21424;SDS011;10873;51.132;16.848;2022-10-03T12:53:21;7.38;;;1.70;;
21424;SDS011;10873;51.132;16.848;2022-10-03T12:55:57;7.10;;;1.48;;
21424;SDS011;10873;51.132;16.848;2022-10-03T12:58:38;8.90;;;1.85;;
21424;SDS011;10873;51.132;16.848;2022-10-03T13:01:23;4.07;;;1.50;;
21424;SDS011;10873;51.132;16.848;2022-10-03T13:03:57;8.30;;;1.23;;
21424;SDS011;10873;51.132;16.848;2022-10-03T13:06:40;6.70;;;1.30;;
21424;SDS011;10873;51.132;16.848;2022-10-03T13:09:22;6.05;;;1.42;;
21424;SDS011;10873;51.132;16.848;2022-10-03T13:12:00;4.57;;;1.20;;
21424;SDS011;10873;51.132;16.848;2022-10-03T13:14:42;4.60;;;1.30;;
21424;SDS011;10873;51.132;16.848;2022-10-03T13:17:46;7.97;;;1.30;;
21424;SDS011;10873;51.132;16.848;2022-10-03T13:20:24;6.28;;;1.65;;
21424;SDS011;10873;51.132;16.848;2022-10-03T13:22:57;2.60;;;1.23;;
21424;SDS011;10873;51.132;16.848;2022-10-03T13:25:32;5.57;;;1.25;;
21424;SDS011;10873;51.132;16.848;2022-10-03T13:28:06;3.25;;;1.40;;
21424;SDS011;10873;51.132;16.848;2022-10-03T13:30:42;3.20;;;1.02;;
21424;SDS011;10873;51.132;16.848;2022-10-03T13:33:15;4.20;;;1.60;;
21424;SDS011;10873;51.132;16.848;2022-10-03T13:35:43;11.93;;;1.58;;
21424;SDS011;10873;51.132;16.848;2022-10-03T13:41:30;3.78;;;1.40;;
21424;SDS011;10873;51.132;16.848;2022-10-03T13:44:03;4.57;;;1.30;;
21424;SDS011;10873;51.132;16.848;2022-10-03T13:46:39;7.30;;;1.50;;
21424;SDS011;10873;51.132;16.848;2022-10-03T13:49:10;3.05;;;1.35;;
21424;SDS011;10873;51.132;16.848;2022-10-03T13:51:45;5.07;;;1.75;;
21424;SDS011;10873;51.132;16.848;2022-10-03T13:54:17;3.08;;;1.27;;
21424;SDS011;10873;51.132;16.848;2022-10-03T13:56:56;3.35;;;1.40;;
21424;SDS011;10873;51.132;16.848;2022-10-03T13:59:30;4.15;;;1.50;;
21424;SDS011;10873;51.132;16.848;2022-10-03T14:02:13;4.43;;;1.52;;
21424;SDS011;10873;51.132;16.848;2022-10-03T14:05:00;6.32;;;1.33;;
21424;SDS011;10873;51.132;16.848;2022-10-03T14:07:44;3.20;;;1.23;;
21424;SDS011;10873;51.132;16.848;2022-10-03T14:10:21;5.32;;;1.63;;
21424;SDS011;10873;51.132;16.848;2022-10-03T14:13:05;4.57;;;1.52;;
21424;SDS011;10873;51.132;16.848;2022-10-03T14:15:43;6.00;;;1.55;;
21424;SDS011;10873;51.132;16.848;2022-10-03T14:18:17;6.65;;;1.50;;
21424;SDS011;10873;51.132;16.848;2022-10-03T14:21:14;4.85;;;1.48;;
21424;SDS011;10873;51.132;16.848;2022-10-03T14:23:59;5.38;;;1.50;;
21424;SDS011;10873;51.132;16.848;2022-10-03T14:26:34;4.20;;;1.40;;
21424;SDS011;10873;51.132;16.848;2022-10-03T14:29:11;4.03;;;1.42;;
21424;SDS011;10873;51.132;16.848;2022-10-03T14:31:46;7.03;;;1.42;;
21424;SDS011;10873;51.132;16.848;2022-10-03T14:34:21;3.70;;;1.40;;
21424;SDS011;10873;51.132;16.848;2022-10-03T14:37:01;5.05;;;1.27;;
21424;SDS011;10873;51.132;16.848;2022-10-03T14:39:37;6.28;;;1.70;;
21424;SDS011;10873;51.132;16.848;2022-10-03T14:42:20;5.28;;;1.90;;
21424;SDS011;10873;51.132;16.848;2022-10-03T14:45:10;4.82;;;1.50;;
21424;SDS011;10873;51.132;16.848;2022-10-03T14:47:40;8.25;;;1.77;;
21424;SDS011;10873;51.132;16.848;2022-10-03T14:50:13;3.25;;;1.25;;
21424;SDS011;10873;51.132;16.848;2022-10-03T14:52:43;5.13;;;1.65;;
21424;SDS011;10873;51.132;16.848;2022-10-03T14:55:13;4.70;;;1.55;;
21424;SDS011;10873;51.132;16.848;2022-10-03T14:57:44;4.38;;;1.40;;
21424;SDS011;10873;51.132;16.848;2022-10-03T15:00:26;3.88;;;1.40;;
21424;SDS011;10873;51.132;16.848;2022-10-03T15:02:58;4.35;;;1.42;;
21424;SDS011;10873;51.132;16.848;2022-10-03T15:06:00;4.28;;;1.40;;
21424;SDS011;10873;51.132;16.848;2022-10-03T15:08:42;6.28;;;1.75;;
21424;SDS011;10873;51.132;16.848;2022-10-03T15:11:12;5.03;;;1.50;;
21424;SDS011;10873;51.132;16.848;2022-10-03T15:13:42;5.38;;;1.58;;
21424;SDS011;10873;51.132;16.848;2022-10-03T15:16:13;3.97;;;1.60;;
21424;SDS011;10873;51.132;16.848;2022-10-03T15:18:48;4.72;;;1.55;;
21424;SDS011;10873;51.132;16.848;2022-10-03T15:21:16;6.60;;;1.83;;
21424;SDS011;10873;51.132;16.848;2022-10-03T15:23:43;4.40;;;1.70;;
21424;SDS011;10873;51.132;16.848;2022-10-03T15:26:13;13.52;;;1.77;;
21424;SDS011;10873;51.132;16.848;2022-10-03T15:28:44;4.75;;;1.80;;
21424;SDS011;10873;51.132;16.848;2022-10-03T15:31:17;4.00;;;1.70;;
21424;SDS011;10873;51.132;16.848;2022-10-03T15:33:52;3.75;;;1.50;;
21424;SDS011;10873;51.132;16.848;2022-10-03T15:36:20;3.67;;;1.40;;
21424;SDS011;10873;51.132;16.848;2022-10-03T15:38:50;5.93;;;1.98;;
21424;SDS011;10873;51.132;16.848;2022-10-03T15:41:20;4.40;;;1.60;;
21424;SDS011;10873;51.132;16.848;2022-10-03T15:43:55;6.00;;;1.98;;
21424;SDS011;10873;51.132;16.848;2022-10-03T15:46:30;4.28;;;1.70;;
21424;SDS011;10873;51.132;16.848;2022-10-03T15:48:59;6.63;;;1.80;;
21424;SDS011;10873;51.132;16.848;2022-10-03T15:51:29;3.70;;;1.58;;
21424;SDS011;10873;51.132;16.848;2022-10-03T15:53:58;6.35;;;2.05;;
21424;SDS011;10873;51.132;16.848;2022-10-03T15:56:28;4.20;;;1.42;;
21424;SDS011;10873;51.132;16.848;2022-10-03T15:59:00;6.18;;;1.67;;
21424;SDS011;10873;51.132;16.848;2022-10-03T16:01:32;7.95;;;1.90;;
21424;SDS011;10873;51.132;16.848;2022-10-03T16:04:02;5.20;;;1.85;;
21424;SDS011;10873;51.132;16.848;2022-10-03T16:06:35;5.28;;;2.08;;
21424;SDS011;10873;51.132;16.848;2022-10-03T16:09:13;5.07;;;1.90;;
21424;SDS011;10873;51.132;16.848;2022-10-03T16:11:50;9.10;;;2.80;;
21424;SDS011;10873;51.132;16.848;2022-10-03T16:14:26;6.95;;;2.55;;
21424;SDS011;10873;51.132;16.848;2022-10-03T16:17:00;12.82;;;6.00;;
21424;SDS011;10873;51.132;16.848;2022-10-03T16:19:37;27.80;;;17.15;;
21424;SDS011;10873;51.132;16.848;2022-10-03T16:22:11;49.25;;;32.70;;
21424;SDS011;10873;51.132;16.848;2022-10-03T16:24:44;50.65;;;35.85;;
21424;SDS011;10873;51.132;16.848;2022-10-03T16:27:17;50.40;;;33.25;;
21424;SDS011;10873;51.132;16.848;2022-10-03T16:29:48;41.80;;;26.45;;
21424;SDS011;10873;51.132;16.848;2022-10-03T16:32:20;32.83;;;21.42;;
21424;SDS011;10873;51.132;16.848;2022-10-03T16:34:49;33.42;;;19.27;;
21424;SDS011;10873;51.132;16.848;2022-10-03T16:37:17;26.67;;;17.48;;
21424;SDS011;10873;51.132;16.848;2022-10-03T16:39:50;26.15;;;17.90;;
21424;SDS011;10873;51.132;16.848;2022-10-03T16:42:19;23.15;;;15.98;;
21424;SDS011;10873;51.132;16.848;2022-10-03T16:44:50;26.85;;;15.30;;
21424;SDS011;10873;51.132;16.848;2022-10-03T16:47:27;25.00;;;14.63;;
21424;SDS011;10873;51.132;16.848;2022-10-03T16:49:57;20.42;;;13.23;;
21424;SDS011;10873;51.132;16.848;2022-10-03T16:52:44;23.70;;;12.85;;
21424;SDS011;10873;51.132;16.848;2022-10-03T16:55:14;22.63;;;12.73;;
21424;SDS011;10873;51.132;16.848;2022-10-03T16:57:43;18.35;;;11.13;;
21424;SDS011;10873;51.132;16.848;2022-10-03T17:00:15;16.67;;;10.88;;
21424;SDS011;10873;51.132;16.848;2022-10-03T17:02:48;17.67;;;9.77;;
21424;SDS011;10873;51.132;16.848;2022-10-03T17:05:15;16.67;;;10.23;;
21424;SDS011;10873;51.132;16.848;2022-10-03T17:07:44;18.77;;;10.15;;
21424;SDS011;10873;51.132;16.848;2022-10-03T17:10:29;18.33;;;9.95;;
21424;SDS011;10873;51.132;16.848;2022-10-03T17:13:00;14.50;;;8.75;;
21424;SDS011;10873;51.132;16.848;2022-10-03T17:15:31;15.35;;;8.80;;
21424;SDS011;10873;51.132;16.848;2022-10-03T17:18:05;16.50;;;8.18;;
21424;SDS011;10873;51.132;16.848;2022-10-03T17:20:40;14.48;;;7.55;;
21424;SDS011;10873;51.132;16.848;2022-10-03T17:23:15;10.85;;;7.22;;
21424;SDS011;10873;51.132;16.848;2022-10-03T17:26:02;15.00;;;7.75;;
21424;SDS011;10873;51.132;16.848;2022-10-03T17:28:34;13.65;;;6.82;;
21424;SDS011;10873;51.132;16.848;2022-10-03T17:31:11;12.98;;;7.40;;
21424;SDS011;10873;51.132;16.848;2022-10-03T17:33:55;13.32;;;6.93;;
21424;SDS011;10873;51.132;16.848;2022-10-03T17:36:37;14.15;;;7.80;;
21424;SDS011;10873;51.132;16.848;2022-10-03T17:39:37;15.68;;;7.43;;
21424;SDS011;10873;51.132;16.848;2022-10-03T17:42:17;14.50;;;7.28;;
21424;SDS011;10873;51.132;16.848;2022-10-03T17:44:56;12.02;;;6.53;;
21424;SDS011;10873;51.132;16.848;2022-10-03T17:47:32;14.63;;;6.22;;
21424;SDS011;10873;51.132;16.848;2022-10-03T17:50:09;12.18;;;6.03;;
21424;SDS011;10873;51.132;16.848;2022-10-03T17:52:41;14.07;;;6.32;;
21424;SDS011;10873;51.132;16.848;2022-10-03T17:55:11;11.63;;;5.63;;
21424;SDS011;10873;51.132;16.848;2022-10-03T17:57:44;10.57;;;5.15;;
21424;SDS011;10873;51.132;16.848;2022-10-03T18:00:16;12.15;;;6.07;;
21424;SDS011;10873;51.132;16.848;2022-10-03T18:02:47;13.73;;;6.07;;
21424;SDS011;10873;51.132;16.848;2022-10-03T18:05:23;9.60;;;5.68;;
21424;SDS011;10873;51.132;16.848;2022-10-03T18:07:52;12.93;;;5.38;;
21424;SDS011;10873;51.132;16.848;2022-10-03T18:10:20;11.43;;;5.40;;
21424;SDS011;10873;51.132;16.848;2022-10-03T18:12:52;12.00;;;5.35;;
21424;SDS011;10873;51.132;16.848;2022-10-03T18:21:55;10.65;;;5.78;;
21424;SDS011;10873;51.132;16.848;2022-10-03T18:24:34;10.68;;;5.15;;
21424;SDS011;10873;51.132;16.848;2022-10-03T18:27:14;10.48;;;5.50;;
21424;SDS011;10873;51.132;16.848;2022-10-03T18:30:02;10.40;;;5.05;;
21424;SDS011;10873;51.132;16.848;2022-10-03T18:32:31;10.40;;;4.97;;
21424;SDS011;10873;51.132;16.848;2022-10-03T18:35:05;8.13;;;4.65;;
21424;SDS011;10873;51.132;16.848;2022-10-03T18:40:29;7.88;;;4.53;;
21424;SDS011;10873;51.132;16.848;2022-10-03T18:43:00;9.35;;;5.10;;
21424;SDS011;10873;51.132;16.848;2022-10-03T18:45:31;11.35;;;5.65;;
21424;SDS011;10873;51.132;16.848;2022-10-03T18:48:04;9.20;;;4.82;;
21424;SDS011;10873;51.132;16.848;2022-10-03T18:50:38;8.05;;;4.47;;
21424;SDS011;10873;51.132;16.848;2022-10-03T18:53:16;11.10;;;4.88;;
21424;SDS011;10873;51.132;16.848;2022-10-03T18:55:53;12.27;;;4.40;;
21424;SDS011;10873;51.132;16.848;2022-10-03T18:58:24;9.60;;;4.35;;
21424;SDS011;10873;51.132;16.848;2022-10-03T19:00:57;10.82;;;4.35;;
21424;SDS011;10873;51.132;16.848;2022-10-03T19:03:30;8.50;;;4.55;;